Latest Weather Observations for Port Kembla Harbour

IDN60801

Issued at 7:42 pm EST Wednesday 12 August 2020 (issued every 10 minutes, with the page automatically refreshed every 10 minutes)

About weather observations | Map of weather stations | Latest weather observations for NSW | Other Formats
Station Details ID: 068253 Name: PORT KEMBLA NTC AWS Lat: -34.47 Lon: 150.91 Height: 0.0 m
Data from the previous 72 hours. | See also: Recent months for locations in New South Wales
Date/Time
EST
Temp
°C
App
Temp
°C
Dew
Point
°C
Rel
Hum
%
Delta-T
°C
Wind Press
QNH
hPa
Press
MSL
hPa
Rain since
9am
mm
Dir  Spd
km/h
Gust
km/h
Spd
kts
Gust
kts
12/07:30pm 16.1 - - - - N 6 7 3 4 1012.0 1012.0 -
12/07:00pm 16.2 - - - - NNW 4 6 2 3 1011.9 1011.9 -
12/06:30pm 16.3 - - - - N 6 7 3 4 1011.8 1011.8 -
12/06:00pm 16.2 - - - - ESE 2 4 1 2 1011.6 1011.6 -
12/05:30pm 16.2 - - - - NNE 13 17 7 9 1011.4 1011.4 -
12/05:00pm 16.2 - - - - NNE 13 17 7 9 1011.3 1011.3 -
12/04:30pm 16.3 - - - - NNE 11 15 6 8 1010.9 1010.9 -
12/04:00pm 16.2 - - - - NE 13 17 7 9 1010.8 1010.8 -
12/03:30pm 16.3 - - - - NE 13 17 7 9 1011.0 1011.0 -
12/03:00pm 16.0 - - - - NE 11 17 6 9 1011.1 1011.1 -
12/02:30pm 15.9 - - - - NE 13 17 7 9 1011.3 1011.3 -
12/02:00pm 15.8 - - - - NE 15 19 8 10 1011.6 1011.6 -
12/01:30pm 15.5 - - - - NE 13 20 7 11 1011.8 1011.8 -
12/01:00pm 15.5 - - - - NE 15 20 8 11 1012.1 1012.1 -
12/12:30pm 15.5 - - - - NE 11 17 6 9 1012.8 1012.8 -
12/12:00pm 15.5 - - - - NE 11 17 6 9 1013.2 1013.2 -
12/11:30am 15.3 - - - - NE 15 19 8 10 1013.9 1013.9 -
12/11:00am 15.0 - - - - NE 17 24 9 13 1014.5 1014.5 -
12/10:30am 15.3 - - - - NE 6 9 3 5 1015.1 1015.1 -
12/10:00am 15.1 - - - - NNE 4 9 2 5 1015.4 1015.4 -
12/09:30am 14.9 - - - - N 11 19 6 10 1015.7 1015.7 -
12/09:00am 14.8 - - - - NNE 9 17 5 9 1016.0 1016.0 -
12/08:30am 14.6 - - - - N 13 22 7 12 1016.0 1016.0 -
12/08:00am 14.1 - - - - NNE 13 17 7 9 1016.2 1016.2 -
12/07:30am 14.2 - - - - N 7 13 4 7 1016.0 1016.0 -
12/07:00am 14.3 - - - - NNW 9 15 5 8 1015.9 1015.9 -
12/06:30am 13.9 - - - - NW 9 15 5 8 1015.7 1015.7 -
12/06:00am 13.9 - - - - WNW 9 13 5 7 1015.7 1015.7 -
12/05:30am 13.9 - - - - WNW 15 20 8 11 1015.8 1015.8 -
12/05:00am 13.9 - - - - WNW 15 20 8 11 1015.9 1015.9 -
12/04:30am 14.0 - - - - WNW 13 17 7 9 1015.8 1015.8 -
12/04:00am 14.0 - - - - N 7 11 4 6 1015.8 1015.8 -
12/03:30am 13.9 - - - - N 9 15 5 8 1015.8 1015.8 -
12/03:00am 13.9 - - - - NNW 15 19 8 10 1016.1 1016.1 -
12/02:30am 14.1 - - - - NNW 19 24 10 13 1016.3 1016.3 -
12/02:00am 13.9 - - - - NNW 13 19 7 10 1016.5 1016.5 -
12/01:30am 13.8 - - - - NNW 13 20 7 11 1016.9 1016.9 -
12/01:00am 14.0 - - - - NNW 13 19 7 10 1017.4 1017.4 -
12/12:30am 14.0 - - - - NNW 11 13 6 7 1017.4 1017.4 -
12/12:00am 12.5 - - - - SW 4 6 2 3 1017.4 1017.4 -
 
Date/Time
EST
Temp
°C
App
Temp
°C
Dew
Point
°C
Rel
Hum
%
Delta-T
°C
Wind Press
QNH
hPa
Press
MSL
hPa
Rain since
9am
mm
Dir  Spd
km/h
Gust
km/h
Spd
kts
Gust
kts
11/11:30pm 12.4 - - - - SW 6 7 3 4 1017.5 1017.5 -
11/11:00pm 11.9 - - - - SW 4 6 2 3 1017.3 1017.3 -
11/10:30pm 11.8 - - - - SW 4 6 2 3 1017.6 1017.6 -
11/10:00pm 12.9 - - - - SE 2 4 1 2 1017.5 1017.5 -
11/09:30pm 12.3 - - - - SSW 4 6 2 3 1018.4 1018.4 -
11/09:00pm 12.2 - - - - SW 6 7 3 4 1018.7 1018.7 -
11/08:30pm 13.6 - - - - WNW 6 7 3 4 1018.6 1018.6 -
11/08:00pm 13.7 - - - - NNW 4 7 2 4 1018.4 1018.4 -
11/07:30pm 13.9 - - - - NNW 7 11 4 6 1018.5 1018.5 -
11/07:00pm 14.0 - - - - N 6 9 3 5 1018.2 1018.2 -
11/06:30pm 14.1 - - - - N 6 9 3 5 1018.1 1018.1 -
11/06:00pm 14.5 - - - - N 7 11 4 6 1017.7 1017.7 -
11/05:30pm 15.1 - - - - NNE 13 17 7 9 1017.4 1017.4 -
11/05:00pm 15.2 - - - - NE 13 17 7 9 1017.4 1017.4 -
11/04:30pm 15.1 - - - - NE 15 20 8 11 1017.3 1017.3 -
11/04:00pm 15.1 - - - - NE 13 19 7 10 1017.5 1017.5 -
11/03:30pm 15.1 - - - - NE 13 19 7 10 1017.6 1017.6 -
11/03:00pm 15.1 - - - - NE 11 17 6 9 1017.8 1017.8 -
11/02:30pm 15.1 - - - - ENE 9 13 5 7 1017.8 1017.8 -
11/02:00pm 14.9 - - - - ENE 7 13 4 7 1017.9 1017.9 -
11/01:30pm 15.1 - - - - ENE 9 11 5 6 1018.1 1018.1 -
11/01:00pm 15.0 - - - - NE 7 11 4 6 1018.4 1018.4 -
11/12:30pm 14.7 - - - - NE 6 9 3 5 1019.1 1019.1 -
11/12:00pm 15.1 - - - - ENE 4 6 2 3 1019.9 1019.9 -
11/11:30am 15.0 - - - - E 4 7 2 4 1020.3 1020.3 -
11/11:00am 14.8 - - - - N 4 7 2 4 1020.8 1020.8 -
11/10:30am 14.4 - - - - WNW 2 4 1 2 1020.9 1020.9 -
11/10:00am 14.0 - - - - W 4 7 2 4 1020.9 1020.9 -
11/09:30am 13.4 - - - - WSW 6 7 3 4 1021.0 1021.0 -
11/09:00am 13.0 - - - - W 7 11 4 6 1021.0 1021.0 -
11/08:30am 12.4 - - - - W 9 13 5 7 1020.9 1020.9 -
11/08:00am 11.9 - - - - WSW 9 11 5 6 1021.1 1021.1 -
11/07:30am 11.5 - - - - WSW 9 13 5 7 1021.3 1021.3 -
11/07:00am 11.3 - - - - WSW 6 11 3 6 1021.1 1021.1 -
11/06:30am 11.0 - - - - W 13 17 7 9 1021.0 1021.0 -
11/06:00am 10.4 - - - - WSW 7 11 4 6 1020.9 1020.9 -
11/05:30am 11.1 - - - - WNW 7 11 4 6 1020.9 1020.9 -
11/05:00am 11.0 - - - - SW 2 4 1 2 1020.9 1020.9 -
11/04:30am 11.0 - - - - WSW 13 15 7 8 1020.4 1020.4 -
11/04:00am 11.4 - - - - SW 7 13 4 7 1020.5 1020.5 -
11/03:30am 11.6 - - - - SW 13 19 7 10 1020.3 1020.3 -
11/03:00am 11.6 - - - - WSW 11 17 6 9 1020.2 1020.2 -
11/02:30am 11.7 - - - - SW 7 11 4 6 1020.4 1020.4 -
11/02:00am 11.8 - - - - WSW 11 19 6 10 1020.6 1020.6 -
11/01:30am 11.8 - - - - WSW 13 20 7 11 1020.7 1020.7 -
11/01:00am 11.6 - - - - WSW 13 17 7 9 1020.6 1020.6 -
11/12:30am 11.8 - - - - WSW 15 20 8 11 1020.5 1020.5 -
11/12:00am 11.7 - - - - WSW 17 22 9 12 1020.5 1020.5 -
 
Date/Time
EST
Temp
°C
App
Temp
°C
Dew
Point
°C
Rel
Hum
%
Delta-T
°C
Wind Press
QNH
hPa
Press
MSL
hPa
Rain since
9am
mm
Dir  Spd
km/h
Gust
km/h
Spd
kts
Gust
kts
10/11:30pm 11.7 - - - - WSW 15 26 8 14 1020.5 1020.5 -
10/11:00pm 11.6 - - - - WSW 15 22 8 12 1020.5 1020.5 -
10/10:30pm 11.8 - - - - WSW 17 24 9 13 1020.5 1020.5 -
10/10:00pm 11.5 - - - - WSW 17 22 9 12 1020.8 1020.8 -
10/09:30pm 11.4 - - - - WSW 19 26 10 14 1020.9 1020.9 -
10/09:00pm 11.4 - - - - SW 15 26 8 14 1021.0 1021.0 -
10/08:30pm 11.1 - - - - SW 13 22 7 12 1020.9 1020.9 -
10/08:00pm 11.5 - - - - WSW 13 20 7 11 1020.9 1020.9 -
10/07:30pm 11.2 - - - - WSW 17 24 9 13 1020.7 1020.7 -
10/07:00pm 11.1 - - - - WSW 20 30 11 16 1020.8 1020.8 -
10/06:30pm 11.5 - - - - SW 13 24 7 13 1020.5 1020.5 -
10/06:00pm 11.7 - - - - SW 17 28 9 15 1020.2 1020.2 -
10/05:30pm 12.4 - - - - SW 19 35 10 19 1019.8 1019.8 -
10/05:00pm 12.8 - - - - SW 20 32 11 17 1019.4 1019.4 -
10/04:30pm 13.4 - - - - SW 28 41 15 22 1019.1 1019.1 -
10/04:00pm 13.6 - - - - SW 22 35 12 19 1018.8 1018.8 -
10/03:30pm 13.5 - - - - SW 19 32 10 17 1018.8 1018.8 -
10/03:00pm 13.4 - - - - SW 26 41 14 22 1018.5 1018.5 -
10/02:30pm 13.8 - - - - SW 28 44 15 24 1018.4 1018.4 -
10/02:00pm 13.7 - - - - SW 24 39 13 21 1018.1 1018.1 -
10/01:30pm 14.2 - - - - SSW 20 41 11 22 1018.2 1018.2 -
10/01:00pm 15.5 - - - - S 15 32 8 17 1018.1 1018.1 -
10/12:30pm 15.7 - - - - S 20 43 11 23 1018.0 1018.0 -
10/12:00pm 15.5 - - - - S 22 39 12 21 1018.1 1018.1 -
10/11:30am 15.2 - - - - S 20 39 11 21 1018.1 1018.1 -
10/11:00am 13.6 - - - - S 22 46 12 25 1018.3 1018.3 -
10/10:30am 15.0 - - - - S 22 41 12 22 1018.1 1018.1 -
10/10:00am 14.1 - - - - S 20 43 11 23 1018.0 1018.0 -
10/09:30am 13.6 - - - - SSE 24 50 13 27 1017.8 1017.8 -
10/09:00am 13.6 - - - - SSW 19 43 10 23 1017.1 1017.1 -
10/08:30am 14.8 - - - - S 22 43 12 23 1016.6 1016.6 -
10/08:00am 14.8 - - - - S 20 41 11 22 1016.3 1016.3 -
10/07:30am 15.2 - - - - SSE 22 41 12 22 1015.8 1015.8 -
10/07:00am 15.2 - - - - SSE 24 46 13 25 1015.3 1015.3 -
10/06:30am 15.3 - - - - SSE 26 52 14 28 1014.5 1014.5 -
10/06:17am 15.2 - - - - S 28 54 15 29 1014.3 1014.3 -
10/06:00am 15.1 - - - - S 22 54 12 29 1014.0 1014.0 -
10/05:30am 14.9 - - - - SSE 28 56 15 30 1013.5 1013.5 -
10/05:13am 14.7 - - - - SSE 28 52 15 28 1013.3 1013.3 -
10/05:00am 14.6 - - - - SSE 26 54 14 29 1013.1 1013.1 -
10/04:30am 13.4 - - - - SSE 28 48 15 26 1012.9 1012.9 -
10/04:00am 13.7 - - - - S 30 57 16 31 1012.5 1012.5 -
10/03:30am 13.6 - - - - SSE 28 54 15 29 1012.2 1012.2 -
10/03:00am 14.1 - - - - SSE 28 52 15 28 1011.8 1011.8 -
10/02:36am 14.8 - - - - SSE 28 57 15 31 1011.7 1011.7 -
10/02:30am 14.7 - - - - SSE 26 48 14 26 1011.6 1011.6 -
10/02:24am 14.8 - - - - SSE 28 50 15 27 1011.6 1011.6 -
10/02:00am 14.1 - - - - SSE 26 52 14 28 1011.4 1011.4 -
10/01:30am 13.7 - - - - SSE 28 59 15 32 1011.4 1011.4 -
10/01:28am 13.2 - - - - SSE 28 59 15 32 1011.4 1011.4 -
10/01:00am 14.6 - - - - SSE 22 43 12 23 1011.3 1011.3 -
10/12:35am 14.5 - - - - SE 28 50 15 27 1011.3 1011.3 -
10/12:30am 15.1 - - - - SE 28 43 15 23 1011.3 1011.3 -
10/12:07am 14.7 - - - - SE 32 52 17 28 1011.5 1011.5 -
10/12:00am 14.8 - - - - SE 33 52 18 28 1011.3 1011.3 -
 
Date/Time
EST
Temp
°C
App
Temp
°C
Dew
Point
°C
Rel
Hum
%
Delta-T
°C
Wind Press
QNH
hPa
Press
MSL
hPa
Rain since
9am
mm
Dir  Spd
km/h
Gust
km/h
Spd
kts
Gust
kts
09/11:30pm 14.0 - - - - SE 37 57 20 31 1010.4 1010.4 -
09/11:21pm 14.7 - - - - SSE 28 57 15 31 1010.1 1010.1 -
09/11:00pm 14.5 - - - - SSE 24 50 13 27 1010.2 1010.2 -
09/10:54pm 14.6 - - - - S 28 50 15 27 1010.1 1010.1 -
09/10:30pm 14.4 - - - - SSE 22 46 12 25 1010.0 1010.0 -
09/10:00pm 14.4 - - - - SE 28 50 15 27 1009.7 1009.7 -
09/09:34pm 15.1 - - - - SSE 28 50 15 27 1009.3 1009.3 -
09/09:30pm 15.0 - - - - SSE 22 43 12 23 1009.2 1009.2 -
09/09:12pm 14.7 - - - - SSE 28 57 15 31 1009.2 1009.2 -
09/09:00pm 14.8 - - - - SSE 22 44 12 24 1009.2 1009.2 -
09/08:30pm 15.0 - - - - SSE 32 57 17 31 1009.0 1009.0 -
09/08:00pm 15.0 - - - - SE 44 67 24 36 1008.3 1008.3 -

Other formats

Comma delimited format used in spreadsheet applications
http://www.bom.gov.au/fwo/IDN60801/IDN60801.95745.axf

JavaScript Object Notation format (JSON) in row-major order
http://www.bom.gov.au/fwo/IDN60801/IDN60801.95745.json

Data quality

Most of these data are generated automatically and are frequently updated. Quality checks on data are not normally performed. It is possible for incorrect values to appear. Refer to information at About Latest Weather Observations and please check the disclaimer before using these data.